createdAt,value
2022-07-30T00:00:11.930Z,20.94
2022-07-30T00:02:57.379Z,20.90
2022-07-30T00:05:43.003Z,20.89
2022-07-30T00:08:28.482Z,20.84
2022-07-30T00:11:15.373Z,20.84
2022-07-30T00:14:01.636Z,20.80
2022-07-30T00:16:46.990Z,20.77
2022-07-30T00:19:32.962Z,20.76
2022-07-30T00:22:18.342Z,20.72
2022-07-30T00:25:03.839Z,20.69
2022-07-30T00:27:49.190Z,20.68
2022-07-30T00:30:34.576Z,20.67
2022-07-30T00:33:19.984Z,20.61
2022-07-30T00:36:05.381Z,20.62
2022-07-30T00:38:51.344Z,20.59
2022-07-30T00:41:53.488Z,20.53
2022-07-30T00:44:41.069Z,20.51
2022-07-30T00:47:26.482Z,20.48
2022-07-30T00:50:14.136Z,20.45
2022-07-30T00:52:59.761Z,20.45
2022-07-30T00:55:45.229Z,20.42
2022-07-30T00:58:30.362Z,20.40
2022-07-30T01:01:15.662Z,20.39
2022-07-30T01:04:00.840Z,20.35
2022-07-30T01:06:46.158Z,20.30
2022-07-30T01:09:34.501Z,20.27
2022-07-30T01:12:25.032Z,20.24
2022-07-30T01:15:10.999Z,20.25
2022-07-30T01:18:00.063Z,20.21
2022-07-30T01:21:07.533Z,20.18
2022-07-30T01:24:00.743Z,20.15
2022-07-30T01:26:47.276Z,20.12
2022-07-30T01:29:41.196Z,20.09
2022-07-30T01:32:28.127Z,20.08
2022-07-30T01:35:15.291Z,20.08
2022-07-30T01:38:02.710Z,20.04
2022-07-30T01:40:51.796Z,20.01
2022-07-30T01:43:38.630Z,20.00
2022-07-30T01:46:26.047Z,19.98
2022-07-30T01:49:13.656Z,19.93
2022-07-30T01:52:02.233Z,19.90
2022-07-30T01:54:51.175Z,19.88
2022-07-30T01:57:38.999Z,19.86
2022-07-30T02:00:26.640Z,19.84
2022-07-30T02:03:12.248Z,19.83
2022-07-30T02:06:04.800Z,19.81
2022-07-30T02:09:02.972Z,19.76
2022-07-30T02:12:17.111Z,19.77
2022-07-30T02:15:30.156Z,19.75
2022-07-30T02:18:32.885Z,19.72
2022-07-30T02:21:36.359Z,19.70
2022-07-30T02:24:27.402Z,19.69
2022-07-30T02:27:19.916Z,19.66
2022-07-30T02:30:06.188Z,19.64
2022-07-30T02:32:52.051Z,19.60
2022-07-30T02:35:38.445Z,19.57
2022-07-30T02:38:27.777Z,19.56
2022-07-30T02:41:13.564Z,19.51
2022-07-30T02:44:00.770Z,19.49
2022-07-30T02:46:49.740Z,19.48
2022-07-30T02:49:49.411Z,19.46
2022-07-30T02:52:35.599Z,19.43
2022-07-30T02:55:22.803Z,19.41
2022-07-30T02:58:10.026Z,19.39
2022-07-30T03:00:57.133Z,19.36
2022-07-30T03:03:44.774Z,19.33
2022-07-30T03:06:31.846Z,19.28
2022-07-30T03:09:21.306Z,19.26
2022-07-30T03:12:08.841Z,19.25
2022-07-30T03:14:54.364Z,19.23
2022-07-30T03:17:46.206Z,19.20
2022-07-30T03:20:34.832Z,19.21
2022-07-30T03:23:22.694Z,19.21
2022-07-30T03:26:11.121Z,19.21
2022-07-30T03:28:57.912Z,19.20
2022-07-30T03:31:43.757Z,19.21
2022-07-30T03:34:34.447Z,19.23
2022-07-30T03:37:21.400Z,19.25
2022-07-30T03:40:08.192Z,19.26
2022-07-30T03:42:53.908Z,19.28
2022-07-30T03:45:44.769Z,19.29
2022-07-30T03:48:33.518Z,19.32
2022-07-30T03:51:21.863Z,19.35
2022-07-30T03:54:13.321Z,19.36
2022-07-30T03:57:04.116Z,19.39
2022-07-30T03:59:58.601Z,19.44
2022-07-30T04:02:46.479Z,19.46
2022-07-30T04:05:48.193Z,19.49
2022-07-30T04:08:34.383Z,19.45
2022-07-30T04:11:21.527Z,19.45
2022-07-30T04:14:40.784Z,19.46
2022-07-30T04:17:35.895Z,19.49
2022-07-30T04:20:29.423Z,19.54
2022-07-30T04:23:15.700Z,19.53
2022-07-30T04:26:03.031Z,19.54
2022-07-30T04:28:48.863Z,19.56
2022-07-30T04:31:37.418Z,19.61
2022-07-30T04:34:50.369Z,19.62
2022-07-30T04:37:42.335Z,19.58
2022-07-30T04:40:29.956Z,19.54
2022-07-30T04:43:15.987Z,19.53
2022-07-30T04:46:04.842Z,19.55
2022-07-30T04:48:50.742Z,19.58
2022-07-30T04:51:38.628Z,19.55
2022-07-30T04:54:26.975Z,19.57
2022-07-30T04:57:15.656Z,19.62
2022-07-30T05:00:01.852Z,19.65
2022-07-30T05:02:51.108Z,19.68
2022-07-30T05:05:36.694Z,19.70
2022-07-30T05:08:24.771Z,19.75
2022-07-30T05:11:14.721Z,19.86
2022-07-30T05:14:00.202Z,19.97
2022-07-30T05:16:45.557Z,20.03
2022-07-30T05:19:31.541Z,20.09
2022-07-30T05:22:16.697Z,20.09
2022-07-30T05:25:03.979Z,20.11
2022-07-30T05:28:01.276Z,20.08
2022-07-30T05:33:41.122Z,20.24
2022-07-30T05:36:30.736Z,20.22
2022-07-30T05:39:16.298Z,20.09
2022-07-30T05:42:29.407Z,20.04
2022-07-30T05:45:16.696Z,20.04
2022-07-30T05:48:02.716Z,20.08
2022-07-30T05:50:48.293Z,20.12
2022-07-30T05:53:33.811Z,20.22
2022-07-30T05:56:38.311Z,20.29
2022-07-30T05:59:36.106Z,20.28
2022-07-30T06:02:56.381Z,20.27
2022-07-30T06:05:44.480Z,20.29
2022-07-30T06:08:29.660Z,20.33
2022-07-30T06:11:14.843Z,20.33
2022-07-30T06:14:01.154Z,20.39
2022-07-30T06:16:46.711Z,20.46
2022-07-30T06:19:31.965Z,20.46
2022-07-30T06:22:17.430Z,20.41
2022-07-30T06:25:10.979Z,20.40
2022-07-30T06:27:56.162Z,20.40
2022-07-30T06:30:41.913Z,20.37
2022-07-30T06:33:27.879Z,20.39
2022-07-30T06:36:14.109Z,20.45
2022-07-30T06:39:53.783Z,20.51
2022-07-30T06:42:51.809Z,20.65
2022-07-30T06:46:01.067Z,20.65
2022-07-30T06:48:51.770Z,20.67
2022-07-30T06:51:37.102Z,20.72
2022-07-30T06:54:22.432Z,20.84
2022-07-30T06:57:17.071Z,21.01
2022-07-30T07:00:05.930Z,20.97
2022-07-30T07:02:54.518Z,20.93
2022-07-30T07:05:51.904Z,20.94
2022-07-30T07:08:38.267Z,20.96
2022-07-30T07:11:25.124Z,21.03
2022-07-30T07:14:14.061Z,20.99
2022-07-30T07:16:59.949Z,20.94
2022-07-30T07:20:17.837Z,21.03
2022-07-30T07:23:09.466Z,21.02
2022-07-30T07:25:58.361Z,21.01
2022-07-30T07:28:44.020Z,21.05
2022-07-30T07:32:04.983Z,21.04
2022-07-30T07:34:34.769Z,21.00
2022-07-30T07:37:20.209Z,21.09
2022-07-30T07:40:06.388Z,21.26
2022-07-30T07:42:56.350Z,21.25
2022-07-30T07:45:43.251Z,21.24
2022-07-30T07:48:31.481Z,21.26
2022-07-30T07:51:47.270Z,21.22
2022-07-30T07:54:33.279Z,21.27
2022-07-30T07:57:20.325Z,21.26
2022-07-30T08:00:07.859Z,21.22
2022-07-30T08:02:53.669Z,21.26
2022-07-30T08:06:00.888Z,21.30
2022-07-30T08:09:04.016Z,21.43
2022-07-30T08:12:09.527Z,21.58
2022-07-30T08:15:13.737Z,21.68
2022-07-30T08:18:37.606Z,21.93
2022-07-30T08:21:36.565Z,22.12
2022-07-30T08:24:24.992Z,22.27
2022-07-30T08:27:10.615Z,22.20
2022-07-30T08:29:56.539Z,21.97
2022-07-30T08:32:43.882Z,22.03
2022-07-30T08:35:28.950Z,22.10
2022-07-30T08:38:14.200Z,22.21
2022-07-30T08:40:59.739Z,22.23
2022-07-30T08:43:47.605Z,22.29
2022-07-30T08:46:34.839Z,22.47
2022-07-30T08:49:34.389Z,22.85
2022-07-30T08:52:20.834Z,23.02
2022-07-30T08:55:21.273Z,22.53
2022-07-30T08:58:35.442Z,22.68
2022-07-30T09:01:22.229Z,22.92
2022-07-30T09:04:07.405Z,22.72
2022-07-30T09:06:52.753Z,22.85
2022-07-30T09:09:38.948Z,22.87
2022-07-30T09:12:39.722Z,22.93
2022-07-30T09:15:25.606Z,22.85
2022-07-30T09:18:11.382Z,23.06
2022-07-30T09:20:58.194Z,23.20
2022-07-30T09:24:06.121Z,23.50
2022-07-30T09:27:10.129Z,23.62
2022-07-30T09:29:59.397Z,23.46
2022-07-30T09:33:03.630Z,23.35
2022-07-30T09:36:10.924Z,23.19
2022-07-30T09:39:14.719Z,23.15
2022-07-30T09:42:32.068Z,23.12
2022-07-30T09:45:26.705Z,23.12
2022-07-30T09:48:24.283Z,23.18
2022-07-30T09:51:15.573Z,23.15
2022-07-30T09:54:01.302Z,23.00
2022-07-30T09:56:53.698Z,23.00
2022-07-30T09:59:39.925Z,23.04
2022-07-30T10:02:32.295Z,23.11
2022-07-30T10:05:50.364Z,23.13
2022-07-30T10:08:45.931Z,23.24
2022-07-30T10:11:31.713Z,23.30
2022-07-30T10:14:18.866Z,23.52
2022-07-30T10:17:17.344Z,23.89
2022-07-30T10:20:12.479Z,23.94
2022-07-30T10:23:08.901Z,23.86
2022-07-30T10:26:17.165Z,23.92
2022-07-30T10:29:22.054Z,24.08
2022-07-30T10:32:19.269Z,24.15
2022-07-30T10:35:31.240Z,24.23
2022-07-30T10:38:24.875Z,24.25
2022-07-30T10:41:42.829Z,24.40
2022-07-30T10:44:40.615Z,24.23
2022-07-30T10:47:33.460Z,24.23
2022-07-30T10:50:26.763Z,24.19
2022-07-30T10:53:42.577Z,24.36
2022-07-30T10:56:28.166Z,24.44
2022-07-30T10:59:14.953Z,24.48
2022-07-30T11:02:00.757Z,24.55
2022-07-30T11:04:49.300Z,24.79
2022-07-30T11:07:35.171Z,25.06
2022-07-30T11:10:40.591Z,25.26
2022-07-30T11:13:58.136Z,25.27
2022-07-30T11:16:43.252Z,25.48
2022-07-30T11:19:56.662Z,25.55
2022-07-30T11:22:40.598Z,25.60
2022-07-30T11:25:51.536Z,25.43
2022-07-30T11:28:36.022Z,25.65
2022-07-30T11:31:37.116Z,25.64
2022-07-30T11:34:34.602Z,25.78
2022-07-30T11:37:22.122Z,25.99
2022-07-30T11:40:09.118Z,26.25
2022-07-30T11:43:34.833Z,26.27
2022-07-30T11:46:28.715Z,26.28
2022-07-30T11:49:15.735Z,26.36
2022-07-30T11:52:01.093Z,26.15
2022-07-30T11:54:54.557Z,26.05
2022-07-30T11:57:41.237Z,26.09
2022-07-30T12:00:34.504Z,26.22
2022-07-30T12:03:22.224Z,26.21
2022-07-30T12:06:10.043Z,26.38
2022-07-30T12:08:58.834Z,26.44
2022-07-30T12:11:44.530Z,26.55
2022-07-30T12:14:39.202Z,26.77
2022-07-30T12:17:42.923Z,26.33
2022-07-30T12:20:29.016Z,26.36
2022-07-30T12:23:15.326Z,26.17
2022-07-30T12:26:07.292Z,26.31
2022-07-30T12:28:54.825Z,26.76
2022-07-30T12:31:41.238Z,26.50
2022-07-30T12:34:27.577Z,26.56
2022-07-30T12:37:13.487Z,26.37
2022-07-30T12:40:06.480Z,26.05
2022-07-30T12:42:53.272Z,25.96
2022-07-30T12:45:52.117Z,26.21
2022-07-30T12:48:52.565Z,25.68
2022-07-30T12:51:52.458Z,25.66
2022-07-30T12:54:45.658Z,26.02
2022-07-30T12:58:05.499Z,26.20
2022-07-30T13:00:54.791Z,25.91
2022-07-30T13:03:40.875Z,25.81
2022-07-30T13:06:26.251Z,25.93
2022-07-30T13:09:21.869Z,25.81
2022-07-30T13:12:11.589Z,25.76
2022-07-30T13:14:56.950Z,25.10
2022-07-30T13:17:42.654Z,24.88
2022-07-30T13:20:27.981Z,24.95
2022-07-30T13:23:13.180Z,25.13
2022-07-30T13:25:58.888Z,25.51
2022-07-30T13:28:46.358Z,25.55
2022-07-30T13:31:42.884Z,25.70
2022-07-30T13:34:28.691Z,25.88
2022-07-30T13:37:13.979Z,25.96
2022-07-30T13:39:59.298Z,25.85
2022-07-30T13:42:44.676Z,26.09
2022-07-30T13:45:30.361Z,25.96
2022-07-30T13:48:16.051Z,26.18
2022-07-30T13:51:03.640Z,26.27
2022-07-30T13:53:49.175Z,26.37
2022-07-30T13:56:34.500Z,26.26
2022-07-30T13:59:26.319Z,25.63
2022-07-30T14:02:11.861Z,25.49
2022-07-30T14:04:57.144Z,25.26
2022-07-30T14:07:42.556Z,25.29
2022-07-30T14:10:28.132Z,25.38
2022-07-30T14:13:21.441Z,25.02
2022-07-30T14:16:18.085Z,25.19
2022-07-30T14:19:24.386Z,25.16
2022-07-30T14:22:09.823Z,25.36
2022-07-30T14:24:55.289Z,25.30
2022-07-30T14:27:40.865Z,25.30
2022-07-30T14:30:26.331Z,25.06
2022-07-30T14:33:11.566Z,25.05
2022-07-30T14:35:56.734Z,25.07
2022-07-30T14:38:42.125Z,25.19
2022-07-30T14:41:28.270Z,25.32
2022-07-30T14:44:13.745Z,25.40
2022-07-30T14:47:00.300Z,25.53
2022-07-30T14:49:46.550Z,25.39
2022-07-30T14:52:34.864Z,25.34
2022-07-30T14:55:20.050Z,25.40
2022-07-30T14:58:05.334Z,25.22
2022-07-30T15:00:51.183Z,25.43
2022-07-30T15:03:36.578Z,25.63
2022-07-30T15:06:21.771Z,25.44
2022-07-30T15:09:08.696Z,25.51
2022-07-30T15:12:08.838Z,25.44
2022-07-30T15:14:54.725Z,25.17
2022-07-30T15:17:40.786Z,25.15
2022-07-30T15:20:25.903Z,25.10
2022-07-30T15:23:13.475Z,25.20
2022-07-30T15:25:59.212Z,25.34
2022-07-30T15:28:44.704Z,25.51
2022-07-30T15:31:29.999Z,25.56
2022-07-30T15:34:15.358Z,25.53
2022-07-30T15:37:01.853Z,25.38
2022-07-30T15:39:47.372Z,25.14
2022-07-30T15:42:32.590Z,24.93
2022-07-30T15:45:18.617Z,25.05
2022-07-30T15:48:04.572Z,25.18
2022-07-30T15:50:49.821Z,25.11
2022-07-30T15:53:35.230Z,25.16
2022-07-30T15:56:20.775Z,25.06
2022-07-30T15:59:07.116Z,25.19
2022-07-30T16:01:53.157Z,25.15
2022-07-30T16:04:38.738Z,25.25
2022-07-30T16:07:26.700Z,25.21
2022-07-30T16:10:12.097Z,25.14
2022-07-30T16:13:00.198Z,25.19
2022-07-30T16:15:45.417Z,25.29
2022-07-30T16:18:31.229Z,25.19
2022-07-30T16:21:17.832Z,25.12
2022-07-30T16:24:04.478Z,25.06
2022-07-30T16:26:51.256Z,24.95
2022-07-30T16:29:36.662Z,24.93
2022-07-30T16:32:22.047Z,24.94
2022-07-30T16:35:12.802Z,24.92
2022-07-30T16:38:02.777Z,24.90
2022-07-30T16:40:48.313Z,24.88
2022-07-30T16:43:33.695Z,24.84
2022-07-30T16:46:19.455Z,24.90
2022-07-30T16:49:05.918Z,24.82
2022-07-30T16:51:52.081Z,24.83
2022-07-30T16:54:37.662Z,24.80
2022-07-30T16:57:23.500Z,24.79
2022-07-30T17:00:10.178Z,24.81
2022-07-30T17:02:55.681Z,24.68
2022-07-30T17:05:45.136Z,24.66
2022-07-30T17:08:31.578Z,24.63
2022-07-30T17:11:18.343Z,24.65
2022-07-30T17:14:22.609Z,24.62
2022-07-30T17:17:13.792Z,24.61
2022-07-30T17:20:01.814Z,24.59
2022-07-30T17:22:47.037Z,24.48
2022-07-30T17:25:32.365Z,24.47
2022-07-30T17:28:19.529Z,24.38
2022-07-30T17:31:09.599Z,24.39
2022-07-30T17:33:55.113Z,24.41
2022-07-30T17:36:50.240Z,24.37
2022-07-30T17:40:19.752Z,24.34
2022-07-30T17:42:46.017Z,24.30
2022-07-30T17:45:34.396Z,24.29
2022-07-30T17:48:21.753Z,24.25
2022-07-30T17:51:07.499Z,24.23
2022-07-30T17:53:52.844Z,24.20
2022-07-30T17:56:39.231Z,24.18
2022-07-30T17:59:24.409Z,24.16
2022-07-30T18:02:09.914Z,24.14
2022-07-30T18:04:56.599Z,24.10
2022-07-30T18:07:43.558Z,24.08
2022-07-30T18:10:29.188Z,24.02
2022-07-30T18:13:19.242Z,23.99
2022-07-30T18:16:12.550Z,23.96
2022-07-30T18:18:57.755Z,23.92
2022-07-30T18:21:43.118Z,23.89
2022-07-30T18:24:31.489Z,23.84
2022-07-30T18:27:16.755Z,23.80
2022-07-30T18:30:04.784Z,23.76
2022-07-30T18:32:53.639Z,23.71
2022-07-30T18:35:41.367Z,23.66
2022-07-30T18:38:26.951Z,23.66
2022-07-30T18:41:13.096Z,23.62
2022-07-30T18:44:02.004Z,23.58
2022-07-30T18:46:47.657Z,23.57
2022-07-30T18:49:37.425Z,23.53
2022-07-30T18:52:23.661Z,23.50
2022-07-30T18:55:12.530Z,23.46
2022-07-30T18:57:58.125Z,23.44
2022-07-30T19:00:44.193Z,23.40
2022-07-30T19:03:30.475Z,23.40
2022-07-30T19:06:16.393Z,23.42
2022-07-30T19:09:01.877Z,23.45
2022-07-30T19:11:49.431Z,23.47
2022-07-30T19:14:35.008Z,23.50
2022-07-30T19:17:20.779Z,23.51
2022-07-30T19:20:31.330Z,23.54
2022-07-30T19:23:18.606Z,23.55
2022-07-30T19:26:05.911Z,23.56
2022-07-30T19:28:53.914Z,23.56
2022-07-30T19:31:41.640Z,23.56
2022-07-30T19:34:27.154Z,23.52
2022-07-30T19:37:12.471Z,23.47
2022-07-30T19:40:06.534Z,23.43
2022-07-30T19:42:52.647Z,23.39
2022-07-30T19:45:47.147Z,23.36
2022-07-30T19:48:36.110Z,23.33
2022-07-30T19:51:25.384Z,23.35
2022-07-30T19:54:27.242Z,23.29
2022-07-30T19:57:13.417Z,23.23
2022-07-30T20:00:04.341Z,23.19
2022-07-30T20:02:56.989Z,23.13
2022-07-30T20:05:57.512Z,23.05
2022-07-30T20:08:45.300Z,23.00
2022-07-30T20:11:36.128Z,22.94
2022-07-30T20:14:22.942Z,22.88
2022-07-30T20:17:08.582Z,22.88
2022-07-30T20:19:55.699Z,22.90
2022-07-30T20:22:44.768Z,22.83
2022-07-30T20:25:37.351Z,22.73
2022-07-30T20:28:23.201Z,22.63
2022-07-30T20:31:11.642Z,22.54
2022-07-30T20:33:59.619Z,22.44
2022-07-30T20:36:44.832Z,22.37
2022-07-30T20:39:30.465Z,22.30
2022-07-30T20:42:15.813Z,22.23
2022-07-30T20:45:01.181Z,22.19
2022-07-30T20:47:48.782Z,22.15
2022-07-30T20:50:35.107Z,22.09
2022-07-30T20:53:22.975Z,22.05
2022-07-30T20:56:08.443Z,22.05
2022-07-30T20:58:56.285Z,22.03
2022-07-30T21:01:41.713Z,21.97
2022-07-30T21:04:28.074Z,21.93
2022-07-30T21:07:13.203Z,21.87
2022-07-30T21:10:07.397Z,21.80
2022-07-30T21:12:53.413Z,21.75
2022-07-30T21:16:02.251Z,21.75
2022-07-30T21:18:50.128Z,21.76
2022-07-30T21:21:38.578Z,21.70
2022-07-30T21:24:33.599Z,21.64
2022-07-30T21:27:19.226Z,21.56
2022-07-30T21:30:05.453Z,21.52
2022-07-30T21:32:50.740Z,21.47
2022-07-30T21:35:36.608Z,21.41
2022-07-30T21:38:27.488Z,21.37
2022-07-30T21:41:15.308Z,21.34
2022-07-30T21:44:00.420Z,21.31
2022-07-30T21:46:48.600Z,21.27
2022-07-30T21:49:34.164Z,21.25
2022-07-30T21:52:19.251Z,21.23
2022-07-30T21:55:05.353Z,21.19
2022-07-30T21:57:50.567Z,21.18
2022-07-30T22:01:17.094Z,21.16
2022-07-30T22:04:08.181Z,21.10
2022-07-30T22:06:54.665Z,21.02
2022-07-30T22:09:39.983Z,21.00
2022-07-30T22:12:25.776Z,20.96
2022-07-30T22:15:15.147Z,20.92
2022-07-30T22:18:01.095Z,20.90
2022-07-30T22:20:46.706Z,20.86
2022-07-30T22:23:31.991Z,20.84
2022-07-30T22:26:17.472Z,20.83
2022-07-30T22:29:02.830Z,20.80
2022-07-30T22:31:50.090Z,20.79
2022-07-30T22:34:35.318Z,20.79
2022-07-30T22:37:21.742Z,20.78
2022-07-30T22:40:07.820Z,20.77
2022-07-30T22:42:53.067Z,20.75
2022-07-30T22:45:48.868Z,20.73
2022-07-30T22:48:35.115Z,20.69
2022-07-30T22:51:20.950Z,20.63
2022-07-30T22:54:12.716Z,20.59
2022-07-30T22:57:03.793Z,20.53
2022-07-30T22:59:57.988Z,20.52
2022-07-30T23:02:46.796Z,20.50
2022-07-30T23:05:32.064Z,20.45
2022-07-30T23:08:29.300Z,20.41
2022-07-30T23:11:16.172Z,20.40
2022-07-30T23:14:01.611Z,20.39
2022-07-30T23:16:50.188Z,20.39
2022-07-30T23:19:35.894Z,20.33
2022-07-30T23:22:21.234Z,20.23
2022-07-30T23:25:10.165Z,20.21
2022-07-30T23:27:57.304Z,20.18
2022-07-30T23:30:42.541Z,20.10
2022-07-30T23:33:27.859Z,20.07
2022-07-30T23:36:13.322Z,20.05
2022-07-30T23:38:59.313Z,20.04
2022-07-30T23:41:44.645Z,20.04
2022-07-30T23:44:33.236Z,20.01
2022-07-30T23:47:20.935Z,20.05
2022-07-30T23:50:26.302Z,20.30
2022-07-30T23:53:11.774Z,20.35
2022-07-30T23:55:57.654Z,20.49
2022-07-30T23:58:45.837Z,20.55
